UASK 171800Z 03001MPS 9999 NSC 13/08 Q1010 NOSIG RMK QFE732/0977
QNH:(hPa/inHg/mmHg)1010 / 29.83 / 758
QFE:(hPa/inHg/mmHg)975 / 28.80 / 731
Temperature13
Dew Point8
Visibility> 10000
Weather
Cloud Cover
Transition Altitude10000 ft.
Transition LevelFL120
SQUAWK